createdAt,value
2023-02-14T12:08:39.633Z,4.05
2023-02-14T12:14:53.881Z,3.20
2023-02-14T12:17:33.099Z,3.33
2023-02-14T12:20:09.916Z,3.73
2023-02-14T12:22:44.715Z,3.35
2023-02-14T12:25:18.332Z,3.58
2023-02-14T12:27:51.723Z,4.22
2023-02-14T12:30:22.034Z,4.28
2023-02-14T12:32:51.809Z,3.85
2023-02-14T12:35:29.232Z,3.55
2023-02-14T12:38:08.588Z,4.30
2023-02-14T12:40:51.108Z,4.90
2023-02-14T12:43:34.322Z,4.53
2023-02-14T12:46:21.004Z,5.50
2023-02-14T12:49:05.091Z,4.88
2023-02-14T12:51:41.140Z,4.53
2023-02-14T12:54:37.280Z,4.57
2023-02-14T12:57:25.099Z,5.18
2023-02-14T13:00:04.388Z,4.15
2023-02-14T13:03:13.438Z,4.70
2023-02-14T13:05:54.968Z,4.63
2023-02-14T13:08:40.545Z,4.38
2023-02-14T13:11:19.534Z,4.50
2023-02-14T13:14:04.499Z,4.82
2023-02-14T13:16:39.177Z,4.22
2023-02-14T13:19:16.870Z,5.05
2023-02-14T13:21:46.327Z,5.38
2023-02-14T13:24:19.613Z,4.38
2023-02-14T13:26:53.919Z,5.10
2023-02-14T13:29:25.780Z,6.00
2023-02-14T13:32:03.407Z,5.60
2023-02-14T13:34:54.899Z,5.05
2023-02-14T13:37:33.738Z,5.72
2023-02-14T13:42:57.867Z,6.38
2023-02-14T13:46:06.921Z,6.65
2023-02-14T13:48:38.947Z,5.32
2023-02-14T13:51:09.639Z,4.40
2023-02-14T13:53:43.481Z,6.10
2023-02-14T13:56:35.262Z,4.85
2023-02-14T13:59:06.425Z,5.60
2023-02-14T14:01:42.946Z,5.50
2023-02-14T14:04:36.753Z,5.75
2023-02-14T14:07:23.428Z,5.68
2023-02-14T14:10:12.392Z,4.85
2023-02-14T14:12:42.336Z,5.60
2023-02-14T14:15:19.185Z,5.05
2023-02-14T14:17:50.756Z,5.18
2023-02-14T14:20:49.049Z,4.72
2023-02-14T14:23:37.228Z,4.68
2023-02-14T14:26:32.244Z,5.25
2023-02-14T14:29:00.548Z,4.75
2023-02-14T14:31:29.865Z,4.70
2023-02-14T14:34:02.324Z,4.25
2023-02-14T14:36:31.713Z,4.28
2023-02-14T14:38:59.791Z,3.90
2023-02-14T14:42:08.576Z,3.40
2023-02-14T14:44:52.036Z,3.20
2023-02-14T14:47:29.180Z,2.95
2023-02-14T14:50:49.256Z,3.55
2023-02-14T14:53:52.924Z,3.55
2023-02-14T14:59:35.835Z,3.15
2023-02-14T15:05:35.243Z,3.95
2023-02-14T15:08:42.448Z,3.30
2023-02-14T15:11:44.508Z,3.75
2023-02-14T15:14:21.600Z,3.60
2023-02-14T15:16:52.695Z,3.88
2023-02-14T15:19:33.422Z,4.28
2023-02-14T15:22:06.224Z,3.75
2023-02-14T15:24:39.557Z,3.80
2023-02-14T15:27:16.621Z,3.22
2023-02-14T15:29:55.040Z,3.67
2023-02-14T15:32:24.450Z,3.25
2023-02-14T15:34:53.964Z,3.63
2023-02-14T15:37:23.660Z,3.58
2023-02-14T15:39:57.177Z,3.28
2023-02-14T15:42:29.446Z,3.45
2023-02-14T15:45:16.677Z,2.88
2023-02-14T15:47:47.642Z,2.90
2023-02-14T15:50:22.508Z,4.15
2023-02-14T15:52:52.088Z,3.92
2023-02-14T15:55:26.874Z,3.75
2023-02-14T15:57:59.406Z,3.13
2023-02-14T16:00:30.826Z,3.38
2023-02-14T16:03:03.771Z,4.32
2023-02-14T16:05:32.731Z,3.22
2023-02-14T16:08:04.903Z,3.83
2023-02-14T16:10:36.499Z,3.17
2023-02-14T16:13:09.407Z,3.25
2023-02-14T16:15:42.498Z,3.17
2023-02-14T16:18:20.134Z,3.20
2023-02-14T16:20:51.296Z,4.15
2023-02-14T16:23:26.900Z,4.88
2023-02-14T16:25:58.564Z,4.25
2023-02-14T16:28:32.310Z,4.30
2023-02-14T16:31:05.892Z,4.97
2023-02-14T16:33:38.407Z,4.20
2023-02-14T16:36:17.084Z,4.38
2023-02-14T16:38:46.777Z,4.10
2023-02-14T16:41:24.782Z,5.38
2023-02-14T16:43:55.167Z,4.53
2023-02-14T16:46:27.006Z,4.05
2023-02-14T16:48:55.397Z,4.75
2023-02-14T16:51:28.732Z,4.82
2023-02-14T16:54:00.658Z,4.55
2023-02-14T16:56:38.327Z,5.22
2023-02-14T16:59:07.610Z,4.65
2023-02-14T17:01:36.346Z,4.77
2023-02-14T17:04:06.097Z,5.00
2023-02-14T17:06:37.729Z,4.93
2023-02-14T17:09:08.770Z,5.13
2023-02-14T17:11:43.509Z,5.65
2023-02-14T17:14:16.188Z,5.95
2023-02-14T17:16:46.860Z,6.35
2023-02-14T17:19:15.875Z,4.97
2023-02-14T17:21:44.107Z,5.70
2023-02-14T17:24:12.700Z,5.65
2023-02-14T17:26:42.594Z,5.80
2023-02-14T17:29:10.936Z,5.75
2023-02-14T17:31:39.326Z,5.55
2023-02-14T17:34:07.661Z,5.72
2023-02-14T17:36:36.501Z,5.05
2023-02-14T17:39:05.708Z,5.43
2023-02-14T17:41:34.176Z,5.85
2023-02-14T17:44:05.823Z,6.28
2023-02-14T17:46:34.657Z,6.68
2023-02-14T17:49:03.102Z,5.15
2023-02-14T17:51:33.208Z,6.15
2023-02-14T17:54:01.460Z,4.85
2023-02-14T17:56:29.611Z,5.63
2023-02-14T17:58:58.210Z,4.63
2023-02-14T18:01:31.606Z,5.00
2023-02-14T18:04:00.292Z,7.20
2023-02-14T18:06:33.605Z,6.32
2023-02-14T18:09:01.917Z,5.60
2023-02-14T18:11:31.225Z,5.25
2023-02-14T18:13:59.982Z,4.38
2023-02-14T18:16:31.565Z,5.85
2023-02-14T18:19:04.109Z,5.65
2023-02-14T18:21:35.885Z,6.70
2023-02-14T18:24:04.742Z,5.93
2023-02-14T18:26:34.073Z,5.93
2023-02-14T18:29:06.840Z,7.00
2023-02-14T18:31:38.450Z,6.18
2023-02-14T18:34:07.449Z,6.00
2023-02-14T18:36:37.871Z,7.28
2023-02-14T18:39:07.145Z,6.72
2023-02-14T18:41:36.093Z,7.13
2023-02-14T18:44:04.997Z,5.22
2023-02-14T18:46:37.608Z,5.75
2023-02-14T18:49:08.516Z,5.32
2023-02-14T18:51:39.417Z,3.92
2023-02-14T18:54:08.212Z,4.70
2023-02-14T18:56:38.645Z,4.93
2023-02-14T18:59:09.813Z,5.45
2023-02-14T19:01:42.567Z,4.85
2023-02-14T19:04:12.679Z,5.15
2023-02-14T19:09:12.049Z,4.85
2023-02-14T19:14:14.585Z,4.32
2023-02-14T19:16:51.158Z,4.80
2023-02-14T19:19:19.941Z,5.20
2023-02-14T19:21:48.595Z,6.07
2023-02-14T19:24:18.157Z,6.20
2023-02-14T19:26:46.820Z,5.78
2023-02-14T19:29:17.043Z,4.32
2023-02-14T19:34:19.202Z,5.18
2023-02-14T19:36:48.025Z,4.30
2023-02-14T19:39:16.727Z,4.18
2023-02-14T19:41:46.538Z,4.32
2023-02-14T19:44:17.181Z,4.00
2023-02-14T19:46:47.939Z,4.95
2023-02-14T19:49:18.145Z,3.95
2023-02-14T19:51:47.468Z,4.57
2023-02-14T19:54:16.623Z,4.83
2023-02-14T19:56:46.896Z,4.30
2023-02-14T19:59:20.114Z,4.43
2023-02-14T20:01:52.233Z,4.32
2023-02-14T20:04:22.800Z,5.07
2023-02-14T20:06:52.948Z,5.63
2023-02-14T20:11:54.377Z,5.78
2023-02-14T20:14:27.104Z,7.90
2023-02-14T20:16:58.678Z,6.43
2023-02-14T20:19:29.455Z,5.80
2023-02-14T20:21:58.008Z,5.30
2023-02-14T20:24:27.697Z,5.10
2023-02-14T20:26:56.397Z,5.15
2023-02-14T20:29:26.017Z,6.88
2023-02-14T20:31:59.982Z,6.07
2023-02-14T20:34:28.714Z,8.10
2023-02-14T20:36:59.422Z,6.75
2023-02-14T20:39:30.852Z,6.07
2023-02-14T20:41:59.770Z,5.22
2023-02-14T20:44:28.321Z,5.43
2023-02-14T20:46:59.905Z,4.53
2023-02-14T20:49:30.760Z,5.82
2023-02-14T20:51:59.212Z,5.18
2023-02-14T20:54:30.318Z,5.57
2023-02-14T20:57:00.065Z,5.78
2023-02-14T20:59:28.931Z,5.30
2023-02-14T21:01:59.778Z,5.68
2023-02-14T21:04:29.719Z,5.43
2023-02-14T21:06:59.729Z,5.63
2023-02-14T21:09:29.490Z,4.20
2023-02-14T21:11:58.480Z,6.60
2023-02-14T21:14:27.221Z,5.55
2023-02-14T21:16:55.433Z,6.60
2023-02-14T21:19:26.710Z,6.40
2023-02-14T21:21:56.674Z,6.65
2023-02-14T21:24:25.586Z,6.38
2023-02-14T21:26:54.050Z,7.30
2023-02-14T21:29:22.514Z,4.72
2023-02-14T21:31:50.651Z,6.32
2023-02-14T21:34:18.919Z,5.25
2023-02-14T21:36:49.145Z,6.15
2023-02-14T21:39:17.671Z,5.80
2023-02-14T21:41:45.851Z,6.20
2023-02-14T21:44:34.030Z,5.68
2023-02-14T21:47:02.414Z,5.45
2023-02-14T21:49:48.170Z,5.82
2023-02-14T21:52:17.908Z,4.63
2023-02-14T21:54:46.115Z,5.43
2023-02-14T21:57:14.483Z,5.28
2023-02-14T21:59:42.827Z,5.55
2023-02-14T22:02:14.369Z,5.32
2023-02-14T22:04:44.256Z,5.18
2023-02-14T22:07:12.393Z,5.07
2023-02-14T22:09:41.978Z,4.55
2023-02-14T22:12:10.065Z,5.18
2023-02-14T22:14:38.166Z,5.22
2023-02-14T22:17:06.366Z,4.38
2023-02-14T22:19:36.520Z,5.32
2023-02-14T22:24:33.215Z,5.38
2023-02-14T22:27:04.081Z,4.78
2023-02-14T22:29:32.356Z,4.88
2023-02-14T22:32:00.906Z,6.38
2023-02-14T22:34:29.692Z,5.28
2023-02-14T22:36:57.836Z,4.97
2023-02-14T22:39:27.410Z,4.68
2023-02-14T22:42:02.647Z,5.65
2023-02-14T22:44:32.452Z,5.53
2023-02-14T22:47:02.477Z,5.47
2023-02-14T22:49:31.064Z,4.90
2023-02-14T22:52:00.566Z,5.18
2023-02-14T22:54:28.724Z,5.13
2023-02-14T22:56:56.900Z,4.93
2023-02-14T22:59:27.531Z,4.60
2023-02-14T23:01:57.495Z,3.88
2023-02-14T23:04:25.937Z,4.03
2023-02-14T23:06:56.479Z,3.92
2023-02-14T23:09:25.857Z,3.63
2023-02-14T23:11:54.240Z,4.43
2023-02-14T23:14:39.818Z,3.78
2023-02-14T23:17:33.707Z,4.10
2023-02-14T23:20:19.387Z,3.50
2023-02-14T23:22:48.813Z,3.20
2023-02-14T23:25:16.888Z,3.88
2023-02-14T23:27:50.182Z,3.83
2023-02-14T23:30:19.976Z,3.20
2023-02-14T23:32:49.584Z,3.50
2023-02-14T23:35:17.690Z,3.25
2023-02-14T23:37:45.993Z,3.95
2023-02-14T23:40:14.878Z,3.70
2023-02-14T23:42:43.245Z,3.10
2023-02-14T23:45:28.793Z,3.47
2023-02-14T23:48:03.096Z,3.33
2023-02-14T23:50:31.507Z,3.70
2023-02-14T23:52:59.934Z,3.67
2023-02-14T23:55:29.128Z,3.30
2023-02-14T23:57:57.200Z,3.40
